Eddersheim, Germany

10:03 PM CET on November 20, 2017 (GMT +0100)
Amselweg | | Change Station

Elev 0 ft 50.00 °N, 8.45 °E | Updated 3 minutes ago

Overcast
Overcast
41.7 °F
Feels Like 42 °F
N
1.2
Wind Variable Wind from SW
Gusts 3.7 mph

Today
High -- | Low -- °F
--% Chance of Precip.
Yesterday
High -- | Low -- °F
Precip. -- in
Pressure 29.99 in
Visibility 6.2 miles
Clouds Overcast 1200 ft
Windchill 42 °F
Dew Point 42 °F
Humidity 99%
Rainfall 0.45 in
Snow Depth Not available.
7:47 AM 4:35 PM
Waxing Crescent, 5% visible
METAR ETOU 202056Z AUTO 25010KT 9999 OVC012 06/05 A2996 RMK AO2 RAB00E17 SLP153 P0000 60001 T00590049 57013
Pressure 29.99 in
Visibility 6.2 miles
Clouds Overcast 1200 ft
Windchill 42 °F
Dew Point 42 °F
Humidity 99%
Rainfall 0.45 in
Snow Depth Not available.
7:47 AM 4:35 PM
Waxing Crescent, 5% visible
METAR ETOU 202056Z AUTO 25010KT 9999 OVC012 06/05 A2996 RMK AO2 RAB00E17 SLP153 P0000 60001 T00590049 57013

Get Severe Weather Alerts

Thanks for signing up!

Be on the lookout for a verification email in your inbox.

You'll start receiving the daily forecast at 6 AM.

×

10-Day Weather Forecast

×

Almanac

Astronomy

Nov. 20, 2017 Rise Set
Actual Time
Civil Twilight
Nautical Twilight
Astronomical Twilight
Moon
Length of Visible Light
Length of Day
Tomorrow will be .
, % of the Moon is Illuminated

Today's Extremes

Country Highs Country Lows

Community

WunderPhotos

Category 6

Welcome to Category 6. This is the collective home for Weather Underground's featured writeups by Dr. Jeff Masters (right), Bob Henson (left), Chris Burt, and other regular contributors.

Nearby

Air Quality

  Air Quality AQ Index Pollutant
Not available.

Snow Depth

Station Depth Elevation

Earthquake Activity

City Distance Mag. Time & Date
Minimum magnitude displayed is 2.5.

Coastal Water Temperatures

Place Temperature

Stations

Nearby Weather Stations

Station Location Temp. Windchill Dew Point Humidity Wind Precip. Elev Updated Type